createdAt,value
2022-10-01T17:39:39.609Z,3.67
2022-10-01T17:42:43.338Z,3.83
2022-10-01T17:45:52.202Z,3.77
2022-10-01T17:48:55.806Z,4.03
2022-10-01T17:51:59.368Z,3.50
2022-10-01T17:55:04.566Z,3.83
2022-10-01T17:58:08.110Z,3.97
2022-10-01T18:01:13.892Z,5.13
2022-10-01T18:04:17.705Z,6.93
2022-10-01T18:07:21.420Z,7.47
2022-10-01T18:10:26.329Z,7.17
2022-10-01T18:13:30.316Z,5.50
2022-10-01T18:16:34.182Z,4.47
2022-10-01T18:19:54.167Z,4.57
2022-10-01T18:22:57.927Z,4.70
2022-10-01T18:26:02.871Z,4.20
2022-10-01T18:29:06.442Z,3.90
2022-10-01T18:32:18.526Z,4.50
2022-10-01T18:35:28.937Z,5.27
2022-10-01T18:38:38.031Z,4.43
2022-10-01T18:41:43.733Z,4.40
2022-10-01T18:44:51.851Z,3.80
2022-10-01T18:48:11.543Z,3.93
2022-10-01T18:51:21.665Z,5.07
2022-10-01T18:54:37.500Z,4.20
2022-10-01T18:57:58.215Z,10.17
2022-10-01T19:01:08.760Z,4.70
2022-10-01T19:04:28.859Z,6.43
2022-10-01T19:07:52.572Z,6.63
2022-10-01T19:11:05.224Z,5.47
2022-10-01T19:14:35.188Z,4.30
2022-10-01T19:18:02.712Z,3.77
2022-10-01T19:21:18.856Z,3.50
2022-10-01T19:24:38.136Z,3.20
2022-10-01T19:27:54.893Z,3.30
2022-10-01T19:31:10.503Z,3.63
2022-10-01T19:34:19.651Z,3.17
2022-10-01T19:37:30.631Z,3.70
2022-10-01T19:40:37.924Z,3.60
2022-10-01T19:43:48.964Z,3.30
2022-10-01T19:46:59.057Z,3.23
2022-10-01T19:50:07.012Z,4.07
2022-10-01T19:53:20.827Z,3.50
2022-10-01T19:56:28.976Z,4.73
2022-10-01T19:59:32.519Z,7.50
2022-10-01T20:02:47.674Z,9.47
2022-10-01T20:05:54.539Z,7.67
2022-10-01T20:09:01.333Z,6.73
2022-10-01T20:12:12.593Z,5.60
2022-10-01T20:15:28.612Z,4.60
2022-10-01T20:18:42.140Z,3.73
2022-10-01T20:21:54.599Z,3.10
2022-10-01T20:25:07.670Z,3.60
2022-10-01T20:28:17.074Z,3.30
2022-10-01T20:31:25.165Z,3.10
2022-10-01T20:34:38.162Z,2.83
2022-10-01T20:37:55.663Z,3.00
2022-10-01T20:41:01.159Z,3.20
2022-10-01T20:44:09.713Z,3.57
2022-10-01T20:47:20.714Z,3.73
2022-10-01T20:50:29.532Z,3.23
2022-10-01T20:53:38.784Z,3.60
2022-10-01T20:56:45.291Z,3.50
2022-10-01T20:59:52.773Z,3.40
2022-10-01T21:03:05.498Z,3.60
2022-10-01T21:06:14.406Z,3.60
2022-10-01T21:09:25.072Z,3.67
2022-10-01T21:12:36.870Z,3.80
2022-10-01T21:15:53.557Z,3.20
2022-10-01T21:19:07.391Z,3.50
2022-10-01T21:22:25.398Z,3.77
2022-10-01T21:25:38.983Z,3.30
2022-10-01T21:29:12.281Z,3.20
2022-10-01T21:32:33.439Z,3.37
2022-10-01T21:35:49.517Z,3.30
2022-10-01T21:39:01.030Z,3.30
2022-10-01T21:42:15.555Z,3.60
2022-10-01T21:45:28.891Z,3.00
2022-10-01T21:48:43.611Z,3.97
2022-10-01T21:52:00.543Z,4.07
2022-10-01T21:55:21.181Z,3.90
2022-10-01T21:58:38.010Z,3.73
2022-10-01T22:02:03.249Z,3.70
2022-10-01T22:05:18.901Z,3.43
2022-10-01T22:08:36.852Z,3.50
2022-10-01T22:11:48.314Z,3.57
2022-10-01T22:14:53.771Z,3.53
2022-10-01T22:17:58.542Z,3.23
2022-10-01T22:21:06.963Z,4.77
2022-10-01T22:24:13.927Z,3.63
2022-10-01T22:27:22.141Z,4.90
2022-10-01T22:30:28.861Z,3.00
2022-10-01T22:33:36.160Z,3.90
2022-10-01T22:36:45.655Z,3.20
2022-10-01T22:39:55.662Z,3.83
